createdAt,value
2022-10-02T00:02:14.189Z,18.97
2022-10-02T00:04:50.424Z,18.89
2022-10-02T00:07:19.237Z,18.67
2022-10-02T00:09:58.010Z,18.93
2022-10-02T00:12:29.351Z,18.84
2022-10-02T00:15:03.513Z,17.65
2022-10-02T00:17:38.276Z,18.66
2022-10-02T00:20:12.895Z,18.89
2022-10-02T00:22:45.340Z,18.90
2022-10-02T00:25:23.783Z,18.89
2022-10-02T00:28:12.079Z,18.86
2022-10-02T00:31:21.328Z,18.69
2022-10-02T00:34:14.342Z,18.78
2022-10-02T00:37:20.875Z,18.73
2022-10-02T00:40:19.436Z,18.69
2022-10-02T00:42:49.066Z,18.65
2022-10-02T00:45:18.438Z,18.61
2022-10-02T00:47:54.592Z,18.53
2022-10-02T00:50:58.745Z,18.50
2022-10-02T00:53:31.382Z,18.06
2022-10-02T00:56:28.969Z,18.33
2022-10-02T00:59:00.358Z,18.28
2022-10-02T01:01:46.323Z,16.72
2022-10-02T01:04:16.610Z,17.96
2022-10-02T01:06:43.511Z,18.15
2022-10-02T01:09:13.573Z,18.10
2022-10-02T01:11:40.300Z,17.99
2022-10-02T01:14:06.961Z,17.92
2022-10-02T01:16:36.514Z,17.85
2022-10-02T01:19:03.537Z,17.83
2022-10-02T01:21:42.308Z,17.46
2022-10-02T01:24:25.666Z,17.46
2022-10-02T01:26:52.243Z,17.57
2022-10-02T01:29:18.938Z,17.62
2022-10-02T01:31:45.561Z,17.40
2022-10-02T01:34:13.379Z,17.52
2022-10-02T01:36:40.032Z,17.54
2022-10-02T01:39:07.093Z,17.58
2022-10-02T01:41:42.985Z,17.42
2022-10-02T01:44:10.873Z,17.44
2022-10-02T01:46:43.363Z,17.59
2022-10-02T01:49:16.047Z,17.49
2022-10-02T01:52:13.058Z,17.56
2022-10-02T01:54:59.755Z,17.51
2022-10-02T01:57:32.303Z,17.55
2022-10-02T02:00:09.429Z,17.39
2022-10-02T02:02:57.350Z,17.44
2022-10-02T02:05:43.819Z,17.34
2022-10-02T02:08:34.618Z,17.28
2022-10-02T02:11:14.441Z,17.22
2022-10-02T02:13:50.081Z,17.21
2022-10-02T02:16:35.901Z,17.06
2022-10-02T02:19:13.527Z,16.88
2022-10-02T02:21:48.950Z,17.05
2022-10-02T02:24:23.746Z,17.02
2022-10-02T02:26:54.163Z,16.88
2022-10-02T02:29:22.950Z,17.13
2022-10-02T02:31:53.379Z,17.18
2022-10-02T02:34:33.994Z,17.10
2022-10-02T02:37:06.002Z,17.18
2022-10-02T02:40:04.905Z,16.70
2022-10-02T02:42:35.476Z,17.18
2022-10-02T02:45:24.732Z,17.08
2022-10-02T02:48:22.872Z,17.21
2022-10-02T02:51:00.418Z,17.20
2022-10-02T02:53:46.837Z,16.96
2022-10-02T02:56:16.427Z,17.08
2022-10-02T02:58:49.630Z,16.80
2022-10-02T03:01:16.440Z,17.06
2022-10-02T03:03:43.047Z,17.05
2022-10-02T03:06:15.725Z,16.60
2022-10-02T03:08:43.884Z,16.94
2022-10-02T03:11:29.123Z,16.97
2022-10-02T03:14:14.456Z,16.92
2022-10-02T03:16:52.970Z,16.90
2022-10-02T03:19:43.430Z,15.68
2022-10-02T03:22:29.269Z,16.93
2022-10-02T03:25:02.377Z,16.84
2022-10-02T03:27:41.418Z,16.83
2022-10-02T03:30:22.005Z,16.67
2022-10-02T03:32:53.474Z,16.58
2022-10-02T03:35:22.788Z,16.83
2022-10-02T03:37:52.936Z,16.40
2022-10-02T03:40:26.704Z,16.77
2022-10-02T03:42:58.262Z,16.77
2022-10-02T03:45:49.570Z,16.83
2022-10-02T03:48:12.525Z,16.82
2022-10-02T03:50:39.043Z,16.84
2022-10-02T03:53:17.808Z,16.64
2022-10-02T03:55:48.634Z,16.67
2022-10-02T03:58:17.793Z,16.71
2022-10-02T04:01:11.691Z,16.72
2022-10-02T04:03:49.328Z,16.36
2022-10-02T04:06:22.694Z,16.74
2022-10-02T04:09:03.197Z,16.91
2022-10-02T04:11:41.373Z,16.86
2022-10-02T04:14:28.112Z,16.78
2022-10-02T04:17:03.977Z,16.71
2022-10-02T04:19:41.035Z,16.52
2022-10-02T04:22:32.357Z,16.67
2022-10-02T04:25:33.663Z,16.24
2022-10-02T04:28:07.880Z,16.34
2022-10-02T04:30:34.616Z,16.70
2022-10-02T04:33:18.610Z,16.66
2022-10-02T04:36:03.837Z,16.61
2022-10-02T04:38:51.458Z,16.65
2022-10-02T04:41:40.286Z,16.38
2022-10-02T04:44:27.890Z,16.68
2022-10-02T04:47:08.207Z,16.37
2022-10-02T04:50:02.637Z,16.55
2022-10-02T04:52:32.133Z,16.26
2022-10-02T04:55:28.078Z,16.36
2022-10-02T04:58:13.239Z,16.65
2022-10-02T05:00:50.004Z,16.52
2022-10-02T05:03:41.503Z,16.49
2022-10-02T05:06:13.958Z,16.51
2022-10-02T05:09:04.944Z,16.49
2022-10-02T05:11:51.042Z,16.48
2022-10-02T05:15:04.793Z,16.41
2022-10-02T05:17:56.189Z,16.34
2022-10-02T05:20:37.595Z,16.17
2022-10-02T05:23:24.488Z,16.35
2022-10-02T05:26:00.866Z,16.53
2022-10-02T05:28:33.628Z,16.47
2022-10-02T05:31:12.584Z,16.42
2022-10-02T05:34:07.248Z,16.27
2022-10-02T05:36:49.574Z,16.22
2022-10-02T05:39:28.557Z,16.16
2022-10-02T05:42:05.809Z,16.22
2022-10-02T05:44:42.840Z,16.16
2022-10-02T05:47:18.243Z,16.20
2022-10-02T05:49:59.751Z,16.29
2022-10-02T05:52:38.543Z,15.98
2022-10-02T05:55:08.288Z,16.31
2022-10-02T05:57:47.419Z,16.33
2022-10-02T06:00:20.983Z,16.18
2022-10-02T06:03:11.226Z,16.24
2022-10-02T06:06:13.195Z,15.86
2022-10-02T06:09:24.495Z,16.29
2022-10-02T06:12:02.946Z,16.40
2022-10-02T06:14:36.779Z,16.56
2022-10-02T06:17:09.460Z,16.26
2022-10-02T06:19:46.469Z,16.68
2022-10-02T06:22:23.515Z,16.40
2022-10-02T06:25:27.472Z,16.85
2022-10-02T06:28:01.068Z,17.00
2022-10-02T06:30:30.318Z,17.06
2022-10-02T06:33:22.677Z,16.77
2022-10-02T06:35:58.031Z,17.11
2022-10-02T06:38:52.575Z,17.21
2022-10-02T06:41:40.687Z,17.24
2022-10-02T06:44:17.426Z,16.70
2022-10-02T06:47:18.167Z,17.34
2022-10-02T06:50:01.920Z,17.45
2022-10-02T06:52:38.865Z,17.51
2022-10-02T06:55:19.643Z,17.46
2022-10-02T06:58:01.289Z,17.57
2022-10-02T07:00:28.110Z,17.66
2022-10-02T07:03:19.266Z,17.75
2022-10-02T07:06:00.477Z,17.86
2022-10-02T07:08:49.099Z,17.54
2022-10-02T07:11:34.918Z,18.20
2022-10-02T07:14:28.088Z,17.58
2022-10-02T07:17:00.576Z,17.34
2022-10-02T07:19:42.666Z,18.51
2022-10-02T07:22:39.963Z,18.66
2022-10-02T07:25:42.865Z,18.83
2022-10-02T07:28:22.937Z,18.84
2022-10-02T07:31:15.660Z,18.39
2022-10-02T07:33:52.228Z,18.91
2022-10-02T07:36:47.576Z,18.93
2022-10-02T07:39:36.038Z,19.10
2022-10-02T07:42:15.566Z,18.76
2022-10-02T07:45:11.468Z,19.16
2022-10-02T07:48:15.646Z,19.23
2022-10-02T07:51:06.788Z,19.28
2022-10-02T07:53:51.496Z,18.92
2022-10-02T07:56:23.796Z,18.72
2022-10-02T07:58:57.468Z,19.19
2022-10-02T08:01:34.382Z,18.66
2022-10-02T08:04:06.894Z,18.55
2022-10-02T08:06:35.103Z,18.84
2022-10-02T08:09:17.686Z,19.50
2022-10-02T08:11:49.921Z,19.67
2022-10-02T08:14:23.012Z,19.69
2022-10-02T08:16:52.541Z,19.75
2022-10-02T08:19:39.536Z,19.60
2022-10-02T08:22:15.356Z,19.68
2022-10-02T08:24:49.150Z,19.73
2022-10-02T08:27:28.294Z,19.67
2022-10-02T08:30:06.561Z,19.98
2022-10-02T08:32:36.409Z,20.02
2022-10-02T08:35:12.307Z,20.03
2022-10-02T08:37:57.943Z,20.10
2022-10-02T08:41:18.870Z,20.10
2022-10-02T08:44:04.098Z,20.19
2022-10-02T08:46:40.035Z,20.25
2022-10-02T08:49:15.920Z,20.23
2022-10-02T08:52:04.464Z,20.08
2022-10-02T08:54:50.515Z,20.53
2022-10-02T08:57:43.456Z,20.54
2022-10-02T09:00:33.915Z,20.33
2022-10-02T09:03:27.641Z,20.76
2022-10-02T09:06:10.234Z,21.04
2022-10-02T09:09:13.763Z,21.21
2022-10-02T09:12:14.946Z,21.32
2022-10-02T09:14:56.787Z,21.18
2022-10-02T09:17:47.134Z,21.67
2022-10-02T09:20:35.469Z,21.79
2022-10-02T09:23:21.118Z,21.97
2022-10-02T09:25:58.647Z,22.16
2022-10-02T09:28:43.460Z,22.19
2022-10-02T09:31:12.995Z,22.21
2022-10-02T09:34:05.655Z,22.51
2022-10-02T09:37:00.406Z,22.70
2022-10-02T09:40:09.006Z,22.70
2022-10-02T09:42:59.923Z,22.23
2022-10-02T09:46:00.615Z,22.49
2022-10-02T09:48:41.025Z,22.57
2022-10-02T09:51:26.389Z,22.38
2022-10-02T09:54:32.867Z,22.76
2022-10-02T09:57:21.261Z,23.15
2022-10-02T10:00:11.668Z,23.39
2022-10-02T10:02:57.066Z,23.54
2022-10-02T10:05:54.465Z,23.61
2022-10-02T10:08:44.030Z,23.79
2022-10-02T10:11:16.697Z,23.63
2022-10-02T10:14:08.208Z,24.19
2022-10-02T10:16:56.755Z,24.41
2022-10-02T10:19:45.442Z,24.57
2022-10-02T10:22:39.023Z,24.84
2022-10-02T10:25:45.287Z,25.10
2022-10-02T10:28:38.609Z,25.18
2022-10-02T10:31:42.790Z,25.50
2022-10-02T10:34:27.534Z,25.57
2022-10-02T10:37:21.872Z,25.51
2022-10-02T10:40:07.329Z,25.98
2022-10-02T10:43:15.778Z,26.14
2022-10-02T10:46:06.425Z,26.37
2022-10-02T10:48:48.547Z,26.22
2022-10-02T10:51:33.969Z,26.68
2022-10-02T10:54:05.557Z,26.61
2022-10-02T10:56:44.800Z,26.71
2022-10-02T10:59:19.785Z,26.87
2022-10-02T11:02:23.051Z,26.94
2022-10-02T11:05:22.319Z,26.98
2022-10-02T11:08:10.990Z,27.20
2022-10-02T11:11:14.741Z,27.11
2022-10-02T11:14:19.627Z,27.07
2022-10-02T11:17:01.347Z,27.03
2022-10-02T11:19:36.951Z,26.95
2022-10-02T11:22:07.430Z,26.83
2022-10-02T11:24:46.030Z,26.56
2022-10-02T11:27:36.447Z,25.58
2022-10-02T11:30:05.930Z,26.07
2022-10-02T11:32:51.300Z,26.37
2022-10-02T11:35:30.311Z,26.20
2022-10-02T11:38:27.759Z,26.10
2022-10-02T11:41:25.262Z,25.93
2022-10-02T11:44:20.978Z,25.67
2022-10-02T11:47:32.115Z,25.46
2022-10-02T11:50:34.903Z,25.44
2022-10-02T11:53:32.144Z,25.33
2022-10-02T11:56:16.884Z,25.18
2022-10-02T11:59:18.729Z,25.25
2022-10-02T12:01:56.738Z,24.95
2022-10-02T12:04:29.686Z,24.90
2022-10-02T12:07:18.269Z,24.94
2022-10-02T12:10:18.759Z,24.89
2022-10-02T12:12:54.649Z,24.85
2022-10-02T12:15:30.522Z,24.76
2022-10-02T12:18:06.961Z,24.74
2022-10-02T12:21:01.337Z,24.80
2022-10-02T12:24:05.099Z,23.95
2022-10-02T12:26:59.522Z,24.81
2022-10-02T12:30:05.158Z,24.92
2022-10-02T12:32:49.880Z,24.46
2022-10-02T12:35:19.390Z,24.58
2022-10-02T12:38:04.267Z,24.60
2022-10-02T12:41:02.535Z,24.61
2022-10-02T12:44:05.795Z,24.66
2022-10-02T12:46:35.322Z,24.62
2022-10-02T12:49:34.312Z,24.31
2022-10-02T12:52:13.263Z,24.23
2022-10-02T12:54:51.801Z,24.30
2022-10-02T12:57:51.650Z,24.47
2022-10-02T13:00:31.549Z,24.34
2022-10-02T13:03:31.486Z,24.47
2022-10-02T13:06:17.659Z,24.57
2022-10-02T13:09:29.709Z,24.60
2022-10-02T13:12:44.292Z,23.75
2022-10-02T13:15:48.412Z,24.45
2022-10-02T13:18:38.800Z,24.24
2022-10-02T13:21:39.604Z,24.35
2022-10-02T13:25:04.781Z,23.45
2022-10-02T13:27:52.173Z,24.35
2022-10-02T13:30:27.213Z,23.00
2022-10-02T13:33:24.532Z,22.91
2022-10-02T13:36:17.842Z,24.22
2022-10-02T13:39:14.073Z,23.93
2022-10-02T13:41:57.903Z,23.08
2022-10-02T13:44:37.076Z,23.84
2022-10-02T13:47:52.701Z,24.23
2022-10-02T13:50:44.547Z,24.27
2022-10-02T13:53:48.962Z,24.24
2022-10-02T13:56:43.538Z,24.19
2022-10-02T13:59:47.664Z,23.21
2022-10-02T14:03:09.461Z,23.33
2022-10-02T14:05:44.847Z,23.90
2022-10-02T14:08:46.612Z,24.40
2022-10-02T14:11:35.325Z,24.37
2022-10-02T14:14:36.831Z,24.33
2022-10-02T14:17:54.296Z,24.38
2022-10-02T14:20:34.719Z,23.97
2022-10-02T14:23:33.014Z,23.04
2022-10-02T14:26:36.621Z,23.59
2022-10-02T14:29:28.666Z,23.79
2022-10-02T14:32:48.105Z,24.37
2022-10-02T14:35:49.467Z,23.60
2022-10-02T14:39:11.565Z,24.27
2022-10-02T14:42:13.284Z,22.98
2022-10-02T14:44:53.827Z,24.23
2022-10-02T14:48:08.098Z,24.22
2022-10-02T14:50:53.955Z,23.91
2022-10-02T14:54:15.814Z,23.04
2022-10-02T14:57:19.295Z,24.19
2022-10-02T15:00:20.766Z,23.42
2022-10-02T15:02:59.607Z,23.38
2022-10-02T15:05:47.854Z,23.62
2022-10-02T15:08:40.593Z,24.17
2022-10-02T15:11:24.726Z,23.64
2022-10-02T15:14:12.640Z,24.17
2022-10-02T15:17:20.573Z,23.91
2022-10-02T15:19:56.194Z,22.91
2022-10-02T15:22:31.713Z,23.56
2022-10-02T15:25:06.901Z,23.34
2022-10-02T15:28:08.154Z,24.17
2022-10-02T15:31:02.657Z,23.86
2022-10-02T15:33:52.588Z,23.98
2022-10-02T15:36:30.008Z,23.83
2022-10-02T15:39:19.859Z,23.75
2022-10-02T15:42:06.253Z,23.88
2022-10-02T15:44:54.744Z,23.99
2022-10-02T15:48:20.083Z,23.50
2022-10-02T15:51:07.962Z,23.83
2022-10-02T15:54:09.463Z,23.86
2022-10-02T15:56:51.717Z,23.83
2022-10-02T16:00:02.140Z,23.89
2022-10-02T16:03:10.405Z,23.82
2022-10-02T16:05:50.356Z,23.75
2022-10-02T16:08:41.925Z,23.43
2022-10-02T16:11:39.566Z,23.73
2022-10-02T16:14:14.060Z,23.65
2022-10-02T16:16:52.792Z,23.77
2022-10-02T16:19:40.531Z,23.81
2022-10-02T16:22:28.494Z,23.63
2022-10-02T16:25:10.670Z,23.59
2022-10-02T16:28:15.030Z,23.62
2022-10-02T16:30:50.741Z,23.24
2022-10-02T16:33:58.420Z,23.64
2022-10-02T16:36:39.342Z,23.52
2022-10-02T16:39:37.677Z,23.39
2022-10-02T16:42:30.504Z,23.32
2022-10-02T16:45:31.432Z,23.39
2022-10-02T16:48:19.562Z,23.40
2022-10-02T16:51:09.945Z,23.47
2022-10-02T16:54:17.440Z,23.26
2022-10-02T16:56:54.184Z,22.97
2022-10-02T16:59:44.877Z,22.87
2022-10-02T17:02:19.264Z,22.75
2022-10-02T17:05:13.071Z,23.16
2022-10-02T17:08:14.963Z,23.09
2022-10-02T17:11:00.199Z,22.99
2022-10-02T17:13:36.656Z,23.00
2022-10-02T17:16:33.250Z,22.99
2022-10-02T17:19:26.246Z,22.98
2022-10-02T17:21:59.978Z,22.44
2022-10-02T17:24:52.940Z,23.01
2022-10-02T17:27:38.007Z,22.64
2022-10-02T17:30:27.132Z,22.82
2022-10-02T17:33:04.318Z,22.58
2022-10-02T17:35:55.133Z,22.91
2022-10-02T17:38:24.175Z,22.84
2022-10-02T17:41:07.150Z,22.72
2022-10-02T17:43:58.404Z,22.70
2022-10-02T17:46:43.926Z,22.65
2022-10-02T17:49:32.194Z,22.59
2022-10-02T17:52:37.141Z,22.53
2022-10-02T17:55:41.002Z,21.68
2022-10-02T17:58:30.293Z,22.50
2022-10-02T18:01:12.548Z,21.98
2022-10-02T18:04:09.528Z,22.39
2022-10-02T18:06:55.808Z,22.35
2022-10-02T18:09:43.257Z,22.30
2022-10-02T18:12:37.748Z,22.05
2022-10-02T18:15:07.094Z,22.42
2022-10-02T18:18:08.399Z,22.28
2022-10-02T18:20:57.465Z,22.37
2022-10-02T18:23:33.329Z,22.37
2022-10-02T18:26:20.172Z,22.26
2022-10-02T18:29:11.138Z,22.27
2022-10-02T18:31:57.721Z,22.18
2022-10-02T18:34:54.052Z,21.69
2022-10-02T18:37:28.040Z,21.81
2022-10-02T18:40:06.843Z,21.70
2022-10-02T18:43:12.695Z,20.80
2022-10-02T18:46:17.856Z,22.10
2022-10-02T18:49:05.005Z,22.03
2022-10-02T18:51:46.022Z,22.02
2022-10-02T18:54:29.212Z,20.79
2022-10-02T18:57:38.543Z,22.01
2022-10-02T19:00:59.280Z,20.72
2022-10-02T19:03:54.935Z,21.94
2022-10-02T19:06:34.334Z,21.55
2022-10-02T19:09:05.942Z,20.81
2022-10-02T19:11:38.111Z,20.50
2022-10-02T19:14:49.945Z,21.84
2022-10-02T19:17:48.967Z,21.19
2022-10-02T19:20:53.727Z,21.38
2022-10-02T19:23:50.269Z,20.14
2022-10-02T19:26:29.572Z,20.28
2022-10-02T19:28:59.999Z,20.88
2022-10-02T19:31:37.303Z,20.98
2022-10-02T19:34:11.081Z,21.22
2022-10-02T19:36:46.531Z,21.34
2022-10-02T19:39:28.687Z,20.40
2022-10-02T19:42:03.077Z,21.24
2022-10-02T19:44:32.669Z,21.32
2022-10-02T19:47:12.972Z,21.12
2022-10-02T19:49:44.219Z,20.22
2022-10-02T19:52:46.823Z,20.11
2022-10-02T19:55:44.103Z,21.08
2022-10-02T19:58:42.519Z,20.49
2022-10-02T20:01:33.493Z,20.75
2022-10-02T20:04:07.751Z,19.93
2022-10-02T20:06:50.736Z,19.80
2022-10-02T20:09:26.725Z,21.16
2022-10-02T20:12:41.659Z,20.23
2022-10-02T20:15:50.337Z,21.04
2022-10-02T20:18:30.219Z,19.36
2022-10-02T20:21:13.867Z,20.69
2022-10-02T20:23:56.864Z,20.35
2022-10-02T20:26:38.666Z,19.99
2022-10-02T20:29:15.641Z,19.83
2022-10-02T20:31:46.160Z,20.46
2022-10-02T20:34:29.153Z,19.51
2022-10-02T20:37:05.189Z,20.77
2022-10-02T20:39:40.853Z,20.74
2022-10-02T20:42:22.937Z,20.54
2022-10-02T20:44:51.097Z,20.64
2022-10-02T20:47:56.203Z,20.60
2022-10-02T20:50:41.801Z,20.26
2022-10-02T20:53:52.557Z,20.54
2022-10-02T20:56:38.862Z,20.53
2022-10-02T20:59:33.260Z,20.49
2022-10-02T21:02:35.274Z,20.48
2022-10-02T21:05:15.476Z,20.45
2022-10-02T21:08:11.499Z,20.46
2022-10-02T21:11:14.722Z,20.43
2022-10-02T21:14:03.199Z,20.53
2022-10-02T21:16:42.596Z,20.45
2022-10-02T21:19:31.211Z,20.46
2022-10-02T21:22:33.974Z,20.10
2022-10-02T21:25:36.221Z,20.44
2022-10-02T21:28:41.306Z,20.44
2022-10-02T21:31:36.159Z,20.39
2022-10-02T21:34:45.868Z,20.34
2022-10-02T21:37:50.387Z,20.34
2022-10-02T21:40:29.097Z,20.30
2022-10-02T21:43:32.735Z,20.25
2022-10-02T21:46:41.586Z,20.13
2022-10-02T21:49:33.034Z,20.16
2022-10-02T21:52:05.864Z,19.60
2022-10-02T21:55:00.322Z,20.08
2022-10-02T21:57:53.113Z,19.88
2022-10-02T22:00:29.120Z,19.91
2022-10-02T22:03:19.864Z,20.00
2022-10-02T22:06:17.590Z,19.98
2022-10-02T22:08:59.773Z,19.94
2022-10-02T22:12:12.648Z,19.91
2022-10-02T22:14:48.739Z,19.68
2022-10-02T22:17:34.134Z,19.87
2022-10-02T22:20:30.776Z,19.52
2022-10-02T22:23:11.143Z,19.80
2022-10-02T22:26:42.089Z,19.78
2022-10-02T22:29:15.302Z,19.75
2022-10-02T22:32:23.025Z,19.67
2022-10-02T22:35:08.785Z,19.74
2022-10-02T22:37:41.290Z,19.37
2022-10-02T22:40:14.417Z,19.65
2022-10-02T22:42:47.107Z,19.66
2022-10-02T22:45:27.505Z,19.80
2022-10-02T22:48:13.752Z,19.64
2022-10-02T22:50:49.862Z,19.61
2022-10-02T22:53:16.823Z,19.84
2022-10-02T22:55:57.300Z,19.80
2022-10-02T22:58:37.681Z,19.83
2022-10-02T23:01:21.872Z,19.86
2022-10-02T23:03:56.545Z,19.56
2022-10-02T23:06:44.252Z,19.81
2022-10-02T23:09:26.021Z,19.46
2022-10-02T23:12:05.099Z,19.83
2022-10-02T23:14:59.634Z,20.01
2022-10-02T23:17:31.413Z,19.60
2022-10-02T23:20:12.047Z,19.37
2022-10-02T23:22:52.475Z,19.88
2022-10-02T23:25:41.676Z,19.85
2022-10-02T23:28:15.938Z,19.74
2022-10-02T23:30:50.607Z,19.79
2022-10-02T23:33:43.701Z,19.89
2022-10-02T23:36:24.399Z,19.84
2022-10-02T23:39:17.216Z,19.90
2022-10-02T23:41:48.446Z,19.89
2022-10-02T23:44:58.694Z,19.84
2022-10-02T23:47:48.871Z,19.77
2022-10-02T23:50:29.248Z,19.52
2022-10-02T23:53:28.672Z,19.68
2022-10-02T23:56:03.548Z,19.77
2022-10-02T23:58:52.179Z,19.08
